createdAt,value
2019-01-16T00:01:40.692Z,98974.37
2019-01-16T00:04:37.917Z,98972.66
2019-01-16T00:07:29.036Z,98967.64
2019-01-16T00:10:24.895Z,98967.17
2019-01-16T00:13:04.769Z,98966.34
2019-01-16T00:15:47.993Z,98963.34
2019-01-16T00:18:36.570Z,98953.39
2019-01-16T00:21:20.103Z,98958.69
2019-01-16T00:24:06.807Z,98951.86
2019-01-16T00:27:05.134Z,98949.87
2019-01-16T00:30:00.034Z,98947.91
2019-01-16T00:32:46.974Z,98940.02
2019-01-16T00:35:41.473Z,98944.13
2019-01-16T00:38:32.344Z,98933.48
2019-01-16T00:41:14.915Z,98925.48
2019-01-16T00:43:56.214Z,98929.22
2019-01-16T00:46:43.299Z,98933.14
2019-01-16T00:49:24.431Z,98933.91
2019-01-16T00:52:18.544Z,98935.14
2019-01-16T00:55:05.956Z,98927.85
2019-01-16T00:58:00.144Z,98931.12
2019-01-16T01:00:44.853Z,98929.38
2019-01-16T01:03:32.677Z,98929.84
2019-01-16T01:06:17.863Z,98930.85
2019-01-16T01:09:07.306Z,98931.97
2019-01-16T01:11:55.392Z,98925.03
2019-01-16T01:14:46.110Z,98923.03
2019-01-16T01:17:29.867Z,98928.19
2019-01-16T01:20:14.059Z,98929.49
2019-01-16T01:23:14.461Z,98929.25
2019-01-16T01:26:08.257Z,98928.26
2019-01-16T01:28:55.157Z,98939.86
2019-01-16T01:31:46.631Z,98930.44
2019-01-16T01:34:23.327Z,98933.77
2019-01-16T01:37:11.219Z,98938.20
2019-01-16T01:40:02.129Z,98939.51
2019-01-16T01:43:02.479Z,98940.63
2019-01-16T01:45:58.876Z,98944.87
2019-01-16T01:48:53.408Z,98943.53
2019-01-16T01:51:41.361Z,98942.95
2019-01-16T01:54:35.096Z,98939.66
2019-01-16T01:57:21.875Z,98939.99
2019-01-16T02:00:22.020Z,98933.75
2019-01-16T02:03:18.945Z,98936.56
2019-01-16T02:06:09.824Z,98938.14
2019-01-16T02:08:57.728Z,98931.48
2019-01-16T02:11:44.195Z,98927.91
2019-01-16T02:14:37.888Z,98927.91
2019-01-16T02:17:32.203Z,98923.47
2019-01-16T02:20:20.172Z,98924.09
2019-01-16T02:23:23.294Z,98919.69
2019-01-16T02:26:18.356Z,98919.14
2019-01-16T02:29:05.068Z,98916.75
2019-01-16T02:31:57.770Z,98912.91
2019-01-16T02:34:54.948Z,98906.42
2019-01-16T02:37:54.665Z,98905.00
2019-01-16T02:40:31.771Z,98901.06
2019-01-16T02:43:21.551Z,98891.39
2019-01-16T02:46:10.136Z,98883.55
2019-01-16T02:48:55.825Z,98886.55
2019-01-16T02:51:38.890Z,98876.31
2019-01-16T02:54:31.641Z,98880.52
2019-01-16T02:57:24.900Z,98874.61
2019-01-16T03:00:05.796Z,98865.80
2019-01-16T03:02:53.630Z,98868.77
2019-01-16T03:05:50.989Z,98869.61
2019-01-16T03:08:39.739Z,98861.04
2019-01-16T03:11:18.098Z,98857.62
2019-01-16T03:14:05.916Z,98857.98
2019-01-16T03:16:50.727Z,98856.51
2019-01-16T03:19:37.533Z,98856.66
2019-01-16T03:22:18.028Z,98859.70
2019-01-16T03:25:04.615Z,98850.06
2019-01-16T03:27:58.214Z,98843.84
2019-01-16T03:30:58.075Z,98849.08
2019-01-16T03:33:46.027Z,98844.36
2019-01-16T03:36:43.284Z,98837.63
2019-01-16T03:39:31.086Z,98825.73
2019-01-16T03:42:17.940Z,98824.10
2019-01-16T03:44:56.072Z,98819.53
2019-01-16T03:47:43.166Z,98826.58
2019-01-16T03:50:40.649Z,98818.63
2019-01-16T03:53:30.972Z,98813.89
2019-01-16T03:56:17.586Z,98812.18
2019-01-16T03:59:12.219Z,98801.06
2019-01-16T04:02:12.564Z,98800.97
2019-01-16T04:05:06.390Z,98798.34
2019-01-16T04:07:50.715Z,98794.56
2019-01-16T04:10:28.238Z,98785.58
2019-01-16T04:13:18.929Z,98791.89
2019-01-16T04:16:22.009Z,98796.19
2019-01-16T04:19:10.090Z,98790.22
2019-01-16T04:21:51.797Z,98791.94
2019-01-16T04:24:46.069Z,98782.28
2019-01-16T04:27:28.308Z,98779.67
2019-01-16T04:30:14.610Z,98784.35
2019-01-16T04:33:20.902Z,98779.62
2019-01-16T04:36:07.541Z,98773.70
2019-01-16T04:38:44.907Z,98768.70
2019-01-16T04:41:38.506Z,98762.03
2019-01-16T04:44:25.474Z,98766.45
2019-01-16T04:47:28.383Z,98761.53
2019-01-16T04:50:10.137Z,98759.70
2019-01-16T04:53:02.013Z,98758.50
2019-01-16T04:55:48.541Z,98760.34
2019-01-16T04:58:33.187Z,98756.69
2019-01-16T05:01:14.451Z,98759.56
2019-01-16T05:04:00.871Z,98752.84
2019-01-16T05:06:58.138Z,98747.59
2019-01-16T05:09:40.881Z,98743.87
2019-01-16T05:12:18.401Z,98736.61
2019-01-16T05:14:58.752Z,98731.16
2019-01-16T05:17:49.370Z,98728.48
2019-01-16T05:20:44.378Z,98721.69
2019-01-16T05:23:23.736Z,98721.02
2019-01-16T05:26:29.859Z,98726.63
2019-01-16T05:29:15.829Z,98729.16
2019-01-16T05:32:01.923Z,98744.78
2019-01-16T05:35:01.882Z,98737.14
2019-01-16T05:37:54.476Z,98729.65
2019-01-16T05:40:41.112Z,98719.65
2019-01-16T05:43:28.992Z,98716.23
2019-01-16T05:46:15.580Z,98713.57
2019-01-16T05:49:09.906Z,98723.48
2019-01-16T05:51:56.692Z,98718.46
2019-01-16T05:54:47.545Z,98711.41
2019-01-16T05:57:34.152Z,98709.31
2019-01-16T06:00:25.211Z,98705.20
2019-01-16T06:03:14.486Z,98713.67
2019-01-16T06:06:01.422Z,98715.36
2019-01-16T06:08:57.749Z,98713.27
2019-01-16T06:11:44.474Z,98705.90
2019-01-16T06:14:32.290Z,98708.04
2019-01-16T06:17:29.462Z,98698.20
2019-01-16T06:20:23.325Z,98700.32
2019-01-16T06:23:14.345Z,98697.39
2019-01-16T06:25:52.932Z,98693.64
2019-01-16T06:28:31.508Z,98694.16
2019-01-16T06:31:17.933Z,98693.80
2019-01-16T06:34:18.134Z,98692.31
2019-01-16T06:37:08.804Z,98683.08
2019-01-16T06:39:59.479Z,98684.05
2019-01-16T06:42:53.404Z,98682.63
2019-01-16T06:45:39.717Z,98678.16
2019-01-16T06:48:33.803Z,98666.69
2019-01-16T06:51:07.975Z,98665.78
2019-01-16T06:53:52.942Z,98661.66
2019-01-16T06:56:32.307Z,98663.42
2019-01-16T06:59:18.090Z,98666.53
2019-01-16T07:02:04.760Z,98663.48
2019-01-16T07:04:51.232Z,98669.30
2019-01-16T07:07:40.836Z,98665.58
2019-01-16T07:10:18.136Z,98660.44
2019-01-16T07:12:55.415Z,98656.94
2019-01-16T07:15:49.630Z,98661.16
2019-01-16T07:18:33.786Z,98657.89
2019-01-16T07:21:24.731Z,98654.51
2019-01-16T07:24:18.536Z,98654.00
2019-01-16T07:27:03.283Z,98656.08
2019-01-16T07:29:56.928Z,98651.34
2019-01-16T07:32:37.130Z,98652.94
2019-01-16T07:35:25.650Z,98649.20
2019-01-16T07:38:22.296Z,98644.20
2019-01-16T07:41:02.941Z,98648.66
2019-01-16T07:43:51.870Z,98642.48
2019-01-16T07:46:33.508Z,98653.13
2019-01-16T07:49:19.981Z,98650.34
2019-01-16T07:52:12.473Z,98654.41
2019-01-16T07:54:58.904Z,98652.42
2019-01-16T07:57:35.275Z,98646.63
2019-01-16T08:00:33.634Z,98648.36
2019-01-16T08:03:16.720Z,98638.69
2019-01-16T08:06:03.314Z,98635.92
2019-01-16T08:09:02.542Z,98633.71
2019-01-16T08:11:43.226Z,98633.20
2019-01-16T08:14:30.011Z,98631.12
2019-01-16T08:17:30.213Z,98639.05
2019-01-16T08:20:24.711Z,98629.06
2019-01-16T08:23:09.749Z,98632.09
2019-01-16T08:26:09.838Z,98623.26
2019-01-16T08:28:50.282Z,98631.39
2019-01-16T08:31:38.233Z,98631.14
2019-01-16T08:34:26.209Z,98632.48
2019-01-16T08:37:23.617Z,98631.81
2019-01-16T08:40:10.372Z,98633.75
2019-01-16T08:42:56.791Z,98636.63
2019-01-16T08:45:51.922Z,98635.84
2019-01-16T08:48:38.755Z,98628.20
2019-01-16T08:51:21.164Z,98630.73
2019-01-16T08:54:08.110Z,98621.18
2019-01-16T08:56:45.595Z,98617.61
2019-01-16T08:59:35.711Z,98622.52
2019-01-16T09:02:29.882Z,98618.02
2019-01-16T09:05:24.195Z,98616.53
2019-01-16T09:08:12.140Z,98611.41
2019-01-16T09:11:09.583Z,98614.30
2019-01-16T09:14:00.655Z,98602.35
2019-01-16T09:16:42.186Z,98606.09
2019-01-16T09:19:25.590Z,98604.48
2019-01-16T09:22:12.250Z,98603.01
2019-01-16T09:24:59.127Z,98598.06
2019-01-16T09:27:58.128Z,98591.89
2019-01-16T09:30:45.964Z,98590.80
2019-01-16T09:33:32.925Z,98596.92
2019-01-16T09:36:12.671Z,98586.71
2019-01-16T09:38:59.639Z,98582.38
2019-01-16T09:41:46.957Z,98583.30
2019-01-16T09:44:28.956Z,98575.96
2019-01-16T09:47:15.901Z,98570.56
2019-01-16T09:50:02.943Z,98559.09
2019-01-16T09:53:03.392Z,98556.61
2019-01-16T09:55:50.367Z,98551.78
2019-01-16T09:58:41.274Z,98552.14
2019-01-16T10:01:32.104Z,98552.44
2019-01-16T10:04:18.914Z,98552.88
2019-01-16T10:06:59.510Z,98538.20
2019-01-16T10:09:40.409Z,98543.58
2019-01-16T10:12:27.116Z,98536.33
2019-01-16T10:15:16.281Z,98537.73
2019-01-16T10:18:19.602Z,98535.28
2019-01-16T10:21:09.626Z,98527.91
2019-01-16T10:24:06.885Z,98527.42
2019-01-16T10:27:02.627Z,98526.28
2019-01-16T10:30:05.699Z,98515.55
2019-01-16T10:32:54.484Z,98515.72
2019-01-16T10:36:00.964Z,98510.58
2019-01-16T10:38:50.830Z,98508.25
2019-01-16T10:41:47.760Z,98503.00
2019-01-16T10:44:45.053Z,98498.80
2019-01-16T10:47:26.525Z,98488.83
2019-01-16T10:50:27.292Z,98493.27
2019-01-16T10:53:18.082Z,98484.08
2019-01-16T10:56:09.005Z,98477.23
2019-01-16T10:58:51.822Z,98462.48
2019-01-16T11:01:39.726Z,98467.09
2019-01-16T11:04:30.810Z,98463.33
2019-01-16T11:07:10.926Z,98450.56
2019-01-16T11:09:55.233Z,98450.84
2019-01-16T11:12:54.072Z,98449.66
2019-01-16T11:15:32.581Z,98438.55
2019-01-16T11:18:29.810Z,98434.53
2019-01-16T11:21:17.806Z,98431.92
2019-01-16T11:24:05.113Z,98430.27
2019-01-16T11:26:52.013Z,98427.39
2019-01-16T11:29:29.150Z,98429.31
2019-01-16T11:32:32.292Z,98423.47
2019-01-16T11:35:16.715Z,98424.20
2019-01-16T11:38:07.039Z,98416.61
2019-01-16T11:40:57.770Z,98418.02
2019-01-16T11:43:41.962Z,98412.94
2019-01-16T11:46:32.646Z,98405.12
2019-01-16T11:49:25.884Z,98398.86
2019-01-16T11:52:12.388Z,98390.55
2019-01-16T11:54:59.202Z,98390.74
2019-01-16T11:58:05.696Z,98382.44
2019-01-16T12:00:49.781Z,98381.59
2019-01-16T12:03:38.193Z,98376.03
2019-01-16T12:06:20.669Z,98370.30
2019-01-16T12:09:07.207Z,98361.31
2019-01-16T12:12:07.286Z,98348.36
2019-01-16T12:14:54.130Z,98355.02
2019-01-16T12:17:51.120Z,98346.84
2019-01-16T12:20:39.571Z,98341.67
2019-01-16T12:23:34.901Z,98340.28
2019-01-16T12:26:15.061Z,98337.75
2019-01-16T12:28:57.803Z,98332.52
2019-01-16T12:31:44.232Z,98323.84
2019-01-16T12:34:30.795Z,98314.92
2019-01-16T12:37:16.538Z,98305.59
2019-01-16T12:40:03.458Z,98298.34
2019-01-16T12:42:57.351Z,98298.12
2019-01-16T12:45:35.254Z,98295.38
2019-01-16T12:48:32.299Z,98292.44
2019-01-16T12:51:33.596Z,98293.89
2019-01-16T12:54:17.981Z,98289.39
2019-01-16T12:57:08.723Z,98286.63
2019-01-16T12:59:56.128Z,98278.98
2019-01-16T13:02:41.103Z,98271.29
2019-01-16T13:05:28.398Z,98269.38
2019-01-16T13:08:19.000Z,98266.25
2019-01-16T13:11:06.360Z,98265.56
2019-01-16T13:13:49.216Z,98253.05
2019-01-16T13:16:37.076Z,98257.00
2019-01-16T13:19:17.026Z,98252.72
2019-01-16T13:22:00.049Z,98250.81
2019-01-16T13:24:41.979Z,98248.59
2019-01-16T13:27:24.593Z,98249.19
2019-01-16T13:30:11.690Z,98240.28
2019-01-16T13:32:58.671Z,98232.34
2019-01-16T13:35:35.215Z,98240.96
2019-01-16T13:38:12.232Z,98234.59
2019-01-16T13:40:59.469Z,98226.45
2019-01-16T13:43:48.100Z,98219.85
2019-01-16T13:46:31.896Z,98216.69
2019-01-16T13:49:18.673Z,98207.54
2019-01-16T13:52:18.909Z,98201.77
2019-01-16T13:54:55.424Z,98198.31
2019-01-16T13:57:42.249Z,98193.44
2019-01-16T14:00:23.929Z,98191.95
2019-01-16T14:03:08.107Z,98188.94
2019-01-16T14:06:14.510Z,98190.10
2019-01-16T14:09:17.871Z,98180.26
2019-01-16T14:12:04.500Z,98181.83
2019-01-16T14:15:10.879Z,98177.48
2019-01-16T14:17:59.427Z,98169.38
2019-01-16T14:20:47.240Z,98172.58
2019-01-16T14:23:41.343Z,98169.67
2019-01-16T14:26:29.901Z,98154.93
2019-01-16T14:29:16.916Z,98154.86
2019-01-16T14:32:03.705Z,98157.28
2019-01-16T14:35:00.482Z,98151.16
2019-01-16T14:37:53.471Z,98150.44
2019-01-16T14:40:40.345Z,98155.45
2019-01-16T14:43:22.505Z,98149.34
2019-01-16T14:46:22.765Z,98136.34
2019-01-16T14:49:09.585Z,98130.82
2019-01-16T14:51:59.662Z,98126.03
2019-01-16T14:54:41.593Z,98123.56
2019-01-16T14:57:22.555Z,98120.25
2019-01-16T15:00:13.342Z,98117.05
2019-01-16T15:02:59.884Z,98111.09
2019-01-16T15:05:53.869Z,98113.81
2019-01-16T15:08:40.903Z,98120.88
2019-01-16T15:11:21.107Z,98122.83
2019-01-16T15:14:15.058Z,98118.17
2019-01-16T15:17:03.026Z,98111.73
2019-01-16T15:19:49.730Z,98112.26
2019-01-16T15:22:32.789Z,98111.55
2019-01-16T15:25:13.170Z,98095.14
2019-01-16T15:28:00.963Z,98101.25
2019-01-16T15:30:44.054Z,98094.19
2019-01-16T15:33:32.009Z,98094.35
2019-01-16T15:36:35.084Z,98087.31
2019-01-16T15:39:33.541Z,98094.38
2019-01-16T15:42:20.501Z,98088.13
2019-01-16T15:45:09.011Z,98082.91
2019-01-16T15:47:53.157Z,98070.33
2019-01-16T15:50:39.793Z,98073.33
2019-01-16T15:53:25.270Z,98067.27
2019-01-16T15:56:22.321Z,98063.05
2019-01-16T15:59:16.174Z,98062.08
2019-01-16T16:02:02.455Z,98068.37
2019-01-16T16:04:56.540Z,98062.81
2019-01-16T16:07:37.641Z,98056.45
2019-01-16T16:10:36.542Z,98061.00
2019-01-16T16:13:20.583Z,98056.14
2019-01-16T16:16:08.149Z,98052.30
2019-01-16T16:19:02.237Z,98052.76
2019-01-16T16:21:52.544Z,98046.14
2019-01-16T16:24:43.664Z,98044.28
2019-01-16T16:27:44.637Z,98043.20
2019-01-16T16:30:25.294Z,98037.78
2019-01-16T16:33:03.018Z,98047.41
2019-01-16T16:35:50.250Z,98047.30
2019-01-16T16:38:36.261Z,98043.91
2019-01-16T16:41:32.205Z,98032.94
2019-01-16T16:44:22.890Z,98040.23
2019-01-16T16:47:18.950Z,98034.75
2019-01-16T16:50:12.979Z,98027.84
2019-01-16T16:52:59.775Z,98031.98
2019-01-16T16:55:46.470Z,98033.33
2019-01-16T16:58:33.060Z,98026.27
2019-01-16T17:01:20.069Z,98023.66
2019-01-16T17:04:13.166Z,98022.81
2019-01-16T17:07:10.065Z,98015.92
2019-01-16T17:09:56.728Z,98012.13
2019-01-16T17:12:49.557Z,98010.09
2019-01-16T17:15:39.441Z,98013.64
2019-01-16T17:18:15.132Z,98006.97
2019-01-16T17:21:02.659Z,97998.70
2019-01-16T17:23:53.386Z,98003.34
2019-01-16T17:26:42.137Z,97996.52
2019-01-16T17:29:32.960Z,97987.59
2019-01-16T17:32:28.703Z,97987.58
2019-01-16T17:35:17.558Z,97985.77
2019-01-16T17:38:14.794Z,97984.13
2019-01-16T17:41:17.901Z,97968.92
2019-01-16T17:44:01.701Z,97969.99
2019-01-16T17:46:53.931Z,97957.35
2019-01-16T17:50:00.244Z,97951.17
2019-01-16T17:52:47.044Z,97962.31
2019-01-16T17:55:41.145Z,97957.62
2019-01-16T17:58:28.898Z,97953.60
2019-01-16T18:01:11.202Z,97953.48
2019-01-16T18:04:00.500Z,97952.36
2019-01-16T18:06:42.082Z,97962.66
2019-01-16T18:09:27.594Z,97938.48
2019-01-16T18:12:15.584Z,97948.16
2019-01-16T18:15:02.987Z,97947.52
2019-01-16T18:18:02.988Z,97948.01
2019-01-16T18:20:45.341Z,97942.37
2019-01-16T18:23:33.305Z,97948.64
2019-01-16T18:26:19.754Z,97947.24
2019-01-16T18:28:59.376Z,97949.73
2019-01-16T18:31:53.381Z,97946.73
2019-01-16T18:34:40.044Z,97949.66
2019-01-16T18:37:43.288Z,97947.48
2019-01-16T18:40:19.962Z,97944.23
2019-01-16T18:43:11.919Z,97943.78
2019-01-16T18:46:02.716Z,97943.95
2019-01-16T18:48:40.014Z,97942.30
2019-01-16T18:51:40.171Z,97951.48
2019-01-16T18:54:26.927Z,97949.30
2019-01-16T18:57:13.657Z,97946.51
2019-01-16T19:00:01.556Z,97940.88
2019-01-16T19:03:08.097Z,97929.02
2019-01-16T19:05:44.425Z,97934.02
2019-01-16T19:08:44.350Z,97925.67
2019-01-16T19:11:31.175Z,97921.52
2019-01-16T19:14:25.608Z,97920.02
2019-01-16T19:17:31.660Z,97921.23
2019-01-16T19:20:21.924Z,97921.95
2019-01-16T19:23:08.684Z,97922.39
2019-01-16T19:26:00.922Z,97922.66
2019-01-16T19:29:04.251Z,97914.15
2019-01-16T19:32:01.562Z,97914.00
2019-01-16T19:34:50.378Z,97915.47
2019-01-16T19:37:41.590Z,97914.92
2019-01-16T19:40:32.762Z,97915.20
2019-01-16T19:43:19.561Z,97918.17
2019-01-16T19:46:10.629Z,97913.27
2019-01-16T19:48:55.975Z,97914.74
2019-01-16T19:51:44.867Z,97911.72
2019-01-16T19:54:42.643Z,97912.19
2019-01-16T19:57:33.614Z,97912.73
2019-01-16T20:00:15.362Z,97909.56
2019-01-16T20:03:02.047Z,97903.91
2019-01-16T20:06:05.535Z,97907.62
2019-01-16T20:09:05.461Z,97911.44
2019-01-16T20:11:52.250Z,97902.92
2019-01-16T20:14:32.030Z,97910.59
2019-01-16T20:17:23.200Z,97904.40
2019-01-16T20:20:23.551Z,97900.97
2019-01-16T20:23:11.167Z,97899.77
2019-01-16T20:25:58.201Z,97893.73
2019-01-16T20:28:48.903Z,97885.88
2019-01-16T20:31:55.352Z,97888.27
2019-01-16T20:34:34.297Z,97892.63
2019-01-16T20:37:20.550Z,97892.72
2019-01-16T20:40:08.517Z,97893.47
2019-01-16T20:43:01.646Z,97890.77
2019-01-16T20:46:01.937Z,97884.13
2019-01-16T20:48:43.275Z,97888.83
2019-01-16T20:51:40.348Z,97882.72
2019-01-16T20:54:34.195Z,97889.20
2019-01-16T20:57:20.821Z,97883.17
2019-01-16T21:00:07.659Z,97882.09
2019-01-16T21:03:04.225Z,97885.50
2019-01-16T21:05:51.017Z,97890.84
2019-01-16T21:08:37.678Z,97893.07
2019-01-16T21:11:31.520Z,97897.11
2019-01-16T21:14:12.047Z,97892.08
2019-01-16T21:17:15.029Z,97891.26
2019-01-16T21:20:05.962Z,97893.25
2019-01-16T21:22:47.974Z,97899.82
2019-01-16T21:25:42.203Z,97891.20
2019-01-16T21:28:42.347Z,97892.78
2019-01-16T21:31:39.122Z,97898.32
2019-01-16T21:34:26.801Z,97893.80
2019-01-16T21:37:20.814Z,97886.47
2019-01-16T21:40:07.437Z,97887.16
2019-01-16T21:43:06.133Z,97885.36
2019-01-16T21:45:52.926Z,97892.23
2019-01-16T21:48:48.802Z,97895.06
2019-01-16T21:51:35.307Z,97892.27
2019-01-16T21:54:33.656Z,97890.66
2019-01-16T21:57:30.843Z,97898.05
2019-01-16T22:03:03.086Z,97890.09
2019-01-16T22:05:54.147Z,97896.73
2019-01-16T22:08:32.108Z,97893.52
2019-01-16T22:11:11.786Z,97895.83
2019-01-16T22:13:58.664Z,97892.13
2019-01-16T22:16:52.634Z,97888.70
2019-01-16T22:19:52.543Z,97885.02
2019-01-16T22:22:39.038Z,97890.02
2019-01-16T22:25:20.143Z,97893.09
2019-01-16T22:28:20.182Z,97894.65
2019-01-16T22:31:07.921Z,97885.89
2019-01-16T22:33:54.465Z,97893.41
2019-01-16T22:36:37.335Z,97888.50
2019-01-16T22:39:25.749Z,97884.41
2019-01-16T22:42:06.617Z,97883.95
2019-01-16T22:44:48.019Z,97881.37
2019-01-16T22:47:31.761Z,97886.67
2019-01-16T22:50:18.765Z,97881.91
2019-01-16T22:53:05.335Z,97882.09
2019-01-16T22:55:48.369Z,97876.94
2019-01-16T22:58:39.431Z,97878.33
2019-01-16T23:01:17.362Z,97868.88
2019-01-16T23:04:17.459Z,97873.30
2019-01-16T23:07:05.348Z,97867.23
2019-01-16T23:09:43.081Z,97866.93
2019-01-16T23:12:29.561Z,97870.91
2019-01-16T23:15:32.452Z,97858.93
2019-01-16T23:18:13.500Z,97857.86
2019-01-16T23:21:10.585Z,97860.11
2019-01-16T23:23:57.300Z,97855.77
2019-01-16T23:26:57.403Z,97857.16
2019-01-16T23:29:36.288Z,97857.00
2019-01-16T23:32:23.574Z,97852.38
2019-01-16T23:35:03.043Z,97858.20
2019-01-16T23:37:51.158Z,97857.54
2019-01-16T23:40:39.231Z,97855.77
2019-01-16T23:43:30.304Z,97862.23
2019-01-16T23:46:24.975Z,97861.66
2019-01-16T23:49:15.659Z,97857.59
2019-01-16T23:52:00.277Z,97857.17
2019-01-16T23:54:48.336Z,97861.16
2019-01-16T23:57:45.104Z,97854.05
